createdAt,value
2023-01-30T00:02:21.899Z,36.49
2023-01-30T00:04:51.851Z,37.07
2023-01-30T00:07:20.214Z,36.83
2023-01-30T00:09:48.632Z,36.54
2023-01-30T00:12:16.870Z,37.19
2023-01-30T00:14:45.099Z,37.05
2023-01-30T00:17:13.637Z,36.63
2023-01-30T00:19:41.912Z,36.44
2023-01-30T00:22:11.583Z,36.34
2023-01-30T00:24:40.042Z,36.62
2023-01-30T00:27:08.454Z,36.78
2023-01-30T00:29:37.609Z,36.89
2023-01-30T00:32:06.088Z,36.79
2023-01-30T00:34:34.409Z,36.74
2023-01-30T00:37:08.372Z,36.34
2023-01-30T00:39:38.397Z,37.07
2023-01-30T00:42:24.613Z,36.56
2023-01-30T00:45:11.744Z,37.07
2023-01-30T00:47:40.041Z,36.22
2023-01-30T00:50:08.976Z,37.06
2023-01-30T00:52:37.259Z,36.61
2023-01-30T00:55:08.131Z,36.44
2023-01-30T00:57:36.530Z,36.22
2023-01-30T01:00:05.733Z,36.31
2023-01-30T01:02:34.248Z,37.00
2023-01-30T01:05:02.739Z,36.79
2023-01-30T01:07:30.930Z,36.60
2023-01-30T01:09:59.479Z,36.47
2023-01-30T01:12:30.082Z,36.87
2023-01-30T01:14:58.306Z,36.58
2023-01-30T01:17:26.871Z,36.43
2023-01-30T01:19:55.220Z,36.43
2023-01-30T01:22:23.384Z,36.65
2023-01-30T01:24:51.583Z,36.40
2023-01-30T01:27:20.120Z,37.10
2023-01-30T01:29:49.918Z,36.43
2023-01-30T01:32:18.286Z,36.90
2023-01-30T01:34:47.582Z,36.78
2023-01-30T01:37:15.852Z,36.51
2023-01-30T01:40:01.523Z,36.92
2023-01-30T01:42:31.623Z,36.68
2023-01-30T01:45:17.413Z,37.18
2023-01-30T01:47:48.969Z,36.60
2023-01-30T01:50:19.954Z,36.61
2023-01-30T01:52:49.787Z,37.13
2023-01-30T01:55:19.881Z,36.63
2023-01-30T01:57:50.632Z,36.63
2023-01-30T02:00:21.590Z,37.05
2023-01-30T02:02:52.801Z,37.12
2023-01-30T02:05:21.167Z,36.89
2023-01-30T02:07:51.815Z,37.28
2023-01-30T02:10:21.961Z,37.02
2023-01-30T02:12:50.282Z,37.00
2023-01-30T02:15:20.639Z,37.10
2023-01-30T02:17:49.521Z,37.37
2023-01-30T02:20:24.491Z,37.41
2023-01-30T02:23:16.387Z,36.84
2023-01-30T02:26:28.734Z,36.80
2023-01-30T02:29:37.294Z,37.13
2023-01-30T02:32:09.305Z,36.62
2023-01-30T02:34:43.316Z,37.29
2023-01-30T02:37:18.431Z,37.20
2023-01-30T02:39:50.321Z,37.44
2023-01-30T02:42:21.856Z,36.90
2023-01-30T02:44:53.719Z,37.03
2023-01-30T02:47:25.974Z,36.99
2023-01-30T02:49:57.593Z,37.40
2023-01-30T02:52:27.083Z,37.40
2023-01-30T02:54:55.323Z,36.78
2023-01-30T02:57:25.452Z,37.51
2023-01-30T02:59:59.312Z,36.82
2023-01-30T03:02:43.559Z,37.25
2023-01-30T03:05:27.743Z,37.44
2023-01-30T03:07:59.735Z,36.85
2023-01-30T03:10:32.772Z,37.17
2023-01-30T03:13:09.238Z,36.94
2023-01-30T03:15:40.079Z,37.40
2023-01-30T03:18:10.306Z,37.56
2023-01-30T03:20:39.506Z,37.40
2023-01-30T03:23:08.035Z,37.42
2023-01-30T03:25:37.398Z,37.35
2023-01-30T03:28:06.055Z,36.88
2023-01-30T03:30:34.838Z,37.29
2023-01-30T03:33:10.654Z,37.57
2023-01-30T03:35:40.710Z,36.98
2023-01-30T03:38:09.111Z,37.04
2023-01-30T03:40:37.624Z,37.03
2023-01-30T03:43:06.006Z,37.66
2023-01-30T03:45:35.156Z,36.94
2023-01-30T03:48:03.405Z,37.34
2023-01-30T03:50:34.204Z,37.43
2023-01-30T03:53:02.807Z,36.94
2023-01-30T03:55:31.089Z,36.93
2023-01-30T03:57:59.370Z,37.07
2023-01-30T04:00:31.144Z,36.91
2023-01-30T04:02:59.507Z,36.92
2023-01-30T04:05:28.095Z,36.50
2023-01-30T04:08:04.729Z,37.06
2023-01-30T04:10:32.910Z,36.70
2023-01-30T04:13:01.262Z,36.80
2023-01-30T04:15:32.110Z,36.43
2023-01-30T04:18:17.356Z,36.91
2023-01-30T04:20:51.901Z,36.83
2023-01-30T04:23:27.675Z,36.34
2023-01-30T04:25:56.123Z,37.20
2023-01-30T04:28:26.422Z,36.42
2023-01-30T04:30:55.306Z,37.10
2023-01-30T04:33:41.515Z,37.01
2023-01-30T04:36:11.706Z,36.78
2023-01-30T04:38:42.351Z,36.61
2023-01-30T04:41:10.659Z,36.94
2023-01-30T04:43:42.114Z,37.02
2023-01-30T04:46:36.409Z,36.82
2023-01-30T04:49:04.971Z,37.02
2023-01-30T04:51:33.171Z,36.87
2023-01-30T04:54:03.493Z,36.57
2023-01-30T04:56:32.972Z,36.23
2023-01-30T04:59:01.553Z,36.27
2023-01-30T05:01:35.476Z,36.61
2023-01-30T05:04:04.048Z,36.24
2023-01-30T05:06:32.604Z,36.46
2023-01-30T05:09:02.456Z,36.33
2023-01-30T05:11:31.027Z,36.17
2023-01-30T05:13:59.347Z,36.66
2023-01-30T05:16:27.646Z,36.58
2023-01-30T05:18:55.943Z,36.53
2023-01-30T05:21:26.096Z,36.46
2023-01-30T05:23:54.310Z,36.82
2023-01-30T05:26:24.068Z,36.48
2023-01-30T05:28:52.975Z,36.39
2023-01-30T05:31:21.441Z,36.54
2023-01-30T05:33:50.286Z,36.13
2023-01-30T05:36:19.731Z,36.35
2023-01-30T05:38:48.024Z,35.92
2023-01-30T05:41:17.327Z,36.33
2023-01-30T05:43:50.624Z,35.89
2023-01-30T05:46:19.073Z,36.29
2023-01-30T05:48:47.367Z,36.25
2023-01-30T05:51:19.554Z,36.43
2023-01-30T05:53:48.206Z,36.09
2023-01-30T05:56:16.629Z,36.11
2023-01-30T05:58:51.210Z,36.19
2023-01-30T06:01:19.768Z,35.96
2023-01-30T06:03:48.348Z,36.37
2023-01-30T06:06:16.754Z,36.22
2023-01-30T06:08:45.396Z,36.45
2023-01-30T06:11:17.152Z,35.63
2023-01-30T06:13:46.964Z,35.97
2023-01-30T06:16:16.460Z,36.07
2023-01-30T06:18:46.124Z,36.07
2023-01-30T06:21:14.615Z,36.30
2023-01-30T06:23:42.905Z,35.82
2023-01-30T06:26:11.264Z,35.87
2023-01-30T06:28:39.809Z,35.66
2023-01-30T06:31:10.025Z,36.30
2023-01-30T06:33:38.396Z,36.08
2023-01-30T06:36:07.033Z,36.02
2023-01-30T06:38:35.546Z,35.17
2023-01-30T06:41:03.832Z,34.91
2023-01-30T06:43:31.928Z,35.64
2023-01-30T06:46:00.635Z,34.88
2023-01-30T06:48:30.988Z,35.63
2023-01-30T06:50:59.252Z,35.61
2023-01-30T06:53:30.606Z,35.49
2023-01-30T06:55:59.355Z,35.01
2023-01-30T06:58:27.752Z,35.54
2023-01-30T07:00:56.221Z,35.58
2023-01-30T07:03:24.442Z,34.94
2023-01-30T07:05:54.200Z,35.55
2023-01-30T07:08:24.195Z,35.43
2023-01-30T07:10:52.583Z,35.55
2023-01-30T07:13:20.910Z,35.19
2023-01-30T07:15:49.110Z,35.03
2023-01-30T07:18:17.273Z,35.04
2023-01-30T07:20:48.403Z,35.37
2023-01-30T07:23:18.119Z,34.99
2023-01-30T07:25:46.465Z,35.43
2023-01-30T07:28:14.936Z,35.57
2023-01-30T07:30:43.136Z,34.95
2023-01-30T07:33:11.525Z,34.88
2023-01-30T07:35:39.973Z,34.98
2023-01-30T07:38:08.473Z,34.87
2023-01-30T07:40:38.323Z,35.36
2023-01-30T07:43:07.642Z,34.94
2023-01-30T07:45:37.277Z,35.25
2023-01-30T07:48:05.799Z,35.17
2023-01-30T07:50:34.007Z,35.05
2023-01-30T07:53:04.525Z,35.90
2023-01-30T07:55:32.801Z,35.90
2023-01-30T07:58:03.942Z,35.12
2023-01-30T08:00:32.217Z,35.46
2023-01-30T08:03:00.403Z,35.61
2023-01-30T08:05:28.638Z,35.12
2023-01-30T08:07:57.278Z,35.00
2023-01-30T08:10:25.798Z,35.04
2023-01-30T08:12:54.114Z,34.98
2023-01-30T08:15:23.739Z,35.50
2023-01-30T08:17:55.669Z,34.93
2023-01-30T08:20:23.905Z,35.66
2023-01-30T08:22:52.264Z,35.37
2023-01-30T08:25:20.475Z,35.24
2023-01-30T08:27:48.602Z,35.03
2023-01-30T08:30:17.567Z,35.45
2023-01-30T08:32:47.587Z,34.78
2023-01-30T08:35:15.935Z,34.92
2023-01-30T08:37:44.275Z,35.28
2023-01-30T08:40:13.661Z,34.79
2023-01-30T08:42:41.858Z,35.26
2023-01-30T08:45:10.600Z,34.88
2023-01-30T08:47:38.858Z,34.62
2023-01-30T08:50:09.234Z,34.79
2023-01-30T08:52:37.488Z,34.61
2023-01-30T08:55:06.667Z,34.86
2023-01-30T08:57:34.974Z,34.67
2023-01-30T09:00:03.564Z,34.57
2023-01-30T09:02:31.756Z,34.71
2023-01-30T09:05:00.042Z,35.00
2023-01-30T09:07:29.679Z,35.56
2023-01-30T09:09:57.960Z,35.09
2023-01-30T09:12:26.128Z,34.92
2023-01-30T09:14:55.880Z,35.55
2023-01-30T09:17:24.154Z,35.25
2023-01-30T09:19:52.467Z,35.18
2023-01-30T09:22:20.697Z,35.08
2023-01-30T09:24:50.381Z,34.61
2023-01-30T09:27:18.568Z,34.57
2023-01-30T09:29:46.856Z,34.49
2023-01-30T09:32:15.154Z,34.44
2023-01-30T09:34:43.403Z,34.40
2023-01-30T09:37:11.662Z,35.19
2023-01-30T09:39:39.945Z,34.52
2023-01-30T09:42:32.242Z,34.72
2023-01-30T09:45:17.801Z,34.82
2023-01-30T09:47:48.908Z,35.13
2023-01-30T09:50:25.474Z,34.46
2023-01-30T09:52:56.456Z,35.02
2023-01-30T09:55:26.330Z,34.34
2023-01-30T09:57:56.041Z,34.94
2023-01-30T10:00:26.364Z,34.39
2023-01-30T10:03:00.717Z,34.30
2023-01-30T10:05:32.572Z,34.16
2023-01-30T10:08:14.995Z,34.54
2023-01-30T10:10:55.071Z,34.67
2023-01-30T10:13:49.568Z,34.03
2023-01-30T10:16:25.801Z,34.18
2023-01-30T10:19:34.819Z,34.58
2023-01-30T10:22:06.682Z,34.04
2023-01-30T10:24:41.006Z,34.90
2023-01-30T10:27:11.783Z,34.74
2023-01-30T10:29:41.564Z,34.49
2023-01-30T10:32:13.511Z,34.82
2023-01-30T10:34:43.152Z,34.77
2023-01-30T10:37:13.643Z,34.37
2023-01-30T10:39:54.882Z,34.63
2023-01-30T10:42:27.097Z,34.46
2023-01-30T10:44:56.868Z,35.15
2023-01-30T10:47:49.289Z,34.63
2023-01-30T10:50:19.354Z,35.24
2023-01-30T10:52:52.933Z,34.91
2023-01-30T10:55:37.216Z,34.87
2023-01-30T10:58:11.060Z,35.31
2023-01-30T11:00:41.744Z,35.46
2023-01-30T11:03:21.655Z,35.96
2023-01-30T11:05:50.882Z,35.85
2023-01-30T11:08:25.959Z,35.43
2023-01-30T11:10:54.756Z,35.86
2023-01-30T11:13:25.251Z,35.48
2023-01-30T11:15:55.752Z,35.80
2023-01-30T11:21:14.969Z,35.87
2023-01-30T11:23:43.962Z,36.22
2023-01-30T11:26:18.799Z,35.41
2023-01-30T11:28:48.947Z,35.43
2023-01-30T11:31:38.931Z,35.87
2023-01-30T11:34:14.189Z,35.96
2023-01-30T11:36:42.387Z,35.79
2023-01-30T11:39:23.227Z,35.40
2023-01-30T11:42:04.769Z,35.31
2023-01-30T11:44:35.958Z,35.71
2023-01-30T11:47:08.782Z,35.87
2023-01-30T11:49:47.612Z,35.87
2023-01-30T11:52:28.910Z,35.99
2023-01-30T11:55:02.447Z,35.87
2023-01-30T11:57:30.898Z,35.21
2023-01-30T12:00:00.467Z,35.40
2023-01-30T12:02:32.260Z,35.60
2023-01-30T12:05:01.683Z,35.20
2023-01-30T12:07:30.793Z,35.60
2023-01-30T12:09:59.422Z,35.18
2023-01-30T12:12:29.981Z,35.68
2023-01-30T12:15:06.913Z,35.47
2023-01-30T12:17:41.277Z,35.63
2023-01-30T12:20:15.594Z,35.61
2023-01-30T12:22:47.495Z,35.54
2023-01-30T12:25:18.463Z,35.48
2023-01-30T12:27:51.556Z,35.86
2023-01-30T12:30:32.812Z,35.62
2023-01-30T12:33:03.500Z,35.37
2023-01-30T12:35:39.411Z,35.29
2023-01-30T12:38:10.986Z,35.55
2023-01-30T12:40:46.767Z,35.36
2023-01-30T12:43:29.446Z,35.93
2023-01-30T12:46:04.770Z,35.74
2023-01-30T12:48:48.532Z,36.07
2023-01-30T12:51:27.485Z,35.71
2023-01-30T12:53:59.682Z,35.73
2023-01-30T12:56:40.250Z,35.87
2023-01-30T12:59:10.140Z,36.04
2023-01-30T13:01:43.392Z,35.71
2023-01-30T13:04:17.048Z,35.61
2023-01-30T13:06:59.491Z,35.45
2023-01-30T13:09:39.794Z,35.84
2023-01-30T13:12:11.818Z,35.55
2023-01-30T13:14:42.402Z,35.57
2023-01-30T13:17:32.103Z,35.98
2023-01-30T13:20:05.893Z,35.87
2023-01-30T13:22:37.656Z,36.20
2023-01-30T13:25:11.012Z,35.94
2023-01-30T13:27:40.278Z,35.89
2023-01-30T13:30:10.631Z,36.08
2023-01-30T13:32:41.586Z,35.99
2023-01-30T13:35:17.123Z,35.83
2023-01-30T13:37:45.586Z,35.91
2023-01-30T13:40:17.221Z,35.92
2023-01-30T13:42:46.972Z,35.68
2023-01-30T13:45:16.908Z,35.97
2023-01-30T13:47:50.152Z,35.49
2023-01-30T13:50:31.914Z,35.38
2023-01-30T13:53:02.501Z,36.13
2023-01-30T13:55:35.543Z,36.27
2023-01-30T13:58:07.860Z,35.89
2023-01-30T14:00:36.704Z,36.01
2023-01-30T14:03:24.295Z,36.18
2023-01-30T14:06:10.798Z,35.95
2023-01-30T14:08:41.749Z,35.97
2023-01-30T14:11:32.395Z,35.69
2023-01-30T14:14:04.222Z,35.67
2023-01-30T14:16:45.209Z,36.18
2023-01-30T14:19:36.837Z,35.68
2023-01-30T14:22:18.633Z,35.69
2023-01-30T14:24:46.838Z,35.71
2023-01-30T14:27:26.585Z,36.09
2023-01-30T14:29:58.014Z,36.18
2023-01-30T14:32:39.945Z,35.72
2023-01-30T14:35:25.745Z,35.65
2023-01-30T14:38:13.471Z,36.35
2023-01-30T14:41:06.978Z,36.19
2023-01-30T14:43:52.844Z,36.41
2023-01-30T14:46:41.237Z,36.17
2023-01-30T14:49:25.150Z,35.62
2023-01-30T14:51:53.741Z,36.10
2023-01-30T14:54:33.308Z,35.75
2023-01-30T14:57:18.594Z,36.04
2023-01-30T14:59:59.347Z,36.24
2023-01-30T15:02:43.836Z,36.05
2023-01-30T15:05:14.476Z,36.09
2023-01-30T15:07:44.003Z,36.59
2023-01-30T15:10:32.951Z,36.09
2023-01-30T15:13:25.535Z,36.56
2023-01-30T15:16:00.661Z,36.27
2023-01-30T15:18:36.912Z,36.49
2023-01-30T15:21:32.843Z,36.77
2023-01-30T15:24:10.107Z,36.86
2023-01-30T15:26:46.401Z,36.51
2023-01-30T15:29:28.086Z,36.33
2023-01-30T15:31:56.604Z,36.22
2023-01-30T15:34:25.180Z,36.00
2023-01-30T15:36:53.409Z,36.15
2023-01-30T15:39:22.422Z,36.23
2023-01-30T15:41:53.487Z,36.41
2023-01-30T15:44:42.566Z,36.28
2023-01-30T15:47:21.662Z,36.42
2023-01-30T15:49:59.038Z,36.03
2023-01-30T15:52:32.527Z,36.20
2023-01-30T15:55:02.316Z,36.06
2023-01-30T15:57:37.001Z,36.16
2023-01-30T16:00:06.579Z,35.57
2023-01-30T16:02:40.619Z,35.93
2023-01-30T16:05:16.783Z,36.42
2023-01-30T16:07:46.723Z,35.99
2023-01-30T16:10:20.128Z,35.67
2023-01-30T16:12:50.727Z,36.37
2023-01-30T16:15:21.357Z,35.83
2023-01-30T16:17:56.738Z,35.68
2023-01-30T16:20:24.939Z,36.32
2023-01-30T16:22:53.655Z,36.24
2023-01-30T16:25:23.232Z,35.90
2023-01-30T16:27:53.834Z,36.12
2023-01-30T16:30:23.836Z,36.15
2023-01-30T16:32:53.322Z,36.06
2023-01-30T16:35:31.463Z,35.76
2023-01-30T16:38:00.518Z,36.03
2023-01-30T16:40:30.976Z,36.37
2023-01-30T16:43:01.499Z,36.15
2023-01-30T16:46:23.772Z,36.47
2023-01-30T16:48:52.363Z,36.06
2023-01-30T16:51:22.507Z,36.63
2023-01-30T16:53:59.840Z,36.58
2023-01-30T16:56:28.918Z,35.90
2023-01-30T16:58:59.613Z,36.34
2023-01-30T17:01:41.255Z,36.22
2023-01-30T17:04:18.990Z,36.46
2023-01-30T17:06:50.634Z,36.34
2023-01-30T17:09:47.013Z,35.92
2023-01-30T17:12:48.496Z,35.95
2023-01-30T17:15:35.607Z,35.87
2023-01-30T17:18:04.230Z,35.83
2023-01-30T17:20:39.303Z,36.04
2023-01-30T17:23:10.016Z,35.94
2023-01-30T17:25:40.329Z,36.12
2023-01-30T17:28:08.883Z,36.63
2023-01-30T17:30:40.794Z,36.30
2023-01-30T17:33:11.286Z,35.95
2023-01-30T17:35:40.659Z,36.47
2023-01-30T17:38:08.967Z,36.50
2023-01-30T17:40:38.344Z,36.30
2023-01-30T17:43:06.566Z,37.05
2023-01-30T17:45:34.892Z,36.98
2023-01-30T17:48:04.552Z,37.09
2023-01-30T17:50:33.199Z,37.04
2023-01-30T17:53:01.452Z,37.24
2023-01-30T17:55:29.611Z,37.34
2023-01-30T17:57:57.918Z,38.14
2023-01-30T18:00:26.307Z,37.43
2023-01-30T18:02:54.684Z,37.95
2023-01-30T18:05:24.582Z,38.36
2023-01-30T18:07:52.871Z,37.90
2023-01-30T18:10:21.492Z,37.75
2023-01-30T18:12:49.921Z,38.05
2023-01-30T18:15:18.467Z,37.92
2023-01-30T18:17:48.030Z,37.90
2023-01-30T18:20:17.359Z,38.05
2023-01-30T18:22:47.275Z,38.68
2023-01-30T18:25:15.698Z,38.95
2023-01-30T18:27:44.568Z,39.05
2023-01-30T18:30:16.868Z,38.48
2023-01-30T18:32:52.427Z,38.86
2023-01-30T18:35:21.657Z,39.21
2023-01-30T18:37:51.390Z,38.91
2023-01-30T18:40:20.297Z,39.22
2023-01-30T18:42:48.843Z,38.82
2023-01-30T18:45:17.339Z,39.00
2023-01-30T18:47:45.740Z,38.85
2023-01-30T18:50:14.056Z,38.93
2023-01-30T18:52:42.355Z,38.47
2023-01-30T18:55:12.381Z,39.12
2023-01-30T18:57:40.625Z,38.98
2023-01-30T19:00:10.211Z,38.86
2023-01-30T19:02:38.452Z,38.78
2023-01-30T19:05:07.614Z,38.74
2023-01-30T19:07:36.614Z,38.48
2023-01-30T19:10:05.092Z,38.07
2023-01-30T19:12:52.099Z,37.98
2023-01-30T19:15:20.486Z,37.93
2023-01-30T19:17:48.804Z,38.35
2023-01-30T19:20:17.726Z,38.24
2023-01-30T19:22:46.517Z,38.10
2023-01-30T19:25:14.784Z,37.77
2023-01-30T19:27:50.693Z,38.20
2023-01-30T19:30:19.866Z,37.80
2023-01-30T19:32:48.433Z,37.91
2023-01-30T19:35:16.902Z,38.10
2023-01-30T19:37:45.147Z,37.69
2023-01-30T19:40:14.091Z,37.75
2023-01-30T19:42:44.398Z,38.29
2023-01-30T19:45:15.141Z,38.28
2023-01-30T19:47:43.431Z,37.58
2023-01-30T19:50:12.723Z,38.31
2023-01-30T19:52:41.354Z,37.58
2023-01-30T19:55:09.943Z,38.30
2023-01-30T19:57:39.030Z,37.62
2023-01-30T20:00:08.694Z,37.91
2023-01-30T20:02:38.584Z,37.81
2023-01-30T20:05:07.780Z,37.68
2023-01-30T20:07:37.307Z,37.85
2023-01-30T20:10:05.954Z,37.95
2023-01-30T20:12:35.708Z,37.48
2023-01-30T20:15:04.922Z,38.10
2023-01-30T20:17:33.470Z,37.92
2023-01-30T20:20:03.200Z,37.34
2023-01-30T20:22:31.465Z,37.73
2023-01-30T20:24:59.635Z,37.94
2023-01-30T20:27:27.915Z,37.38
2023-01-30T20:29:56.438Z,37.23
2023-01-30T20:32:24.795Z,37.26
2023-01-30T20:34:53.026Z,37.62
2023-01-30T20:37:22.710Z,37.16
2023-01-30T20:39:51.215Z,37.18
2023-01-30T20:42:19.917Z,37.12
2023-01-30T20:44:48.300Z,37.34
2023-01-30T20:47:16.519Z,37.70
2023-01-30T20:49:44.820Z,37.04
2023-01-30T20:52:13.113Z,37.01
2023-01-30T20:54:43.063Z,37.48
2023-01-30T20:57:11.591Z,37.06
2023-01-30T20:59:40.379Z,37.43
2023-01-30T21:02:09.939Z,37.01
2023-01-30T21:04:38.783Z,37.30
2023-01-30T21:07:07.045Z,37.06
2023-01-30T21:09:35.527Z,36.99
2023-01-30T21:12:05.364Z,37.25
2023-01-30T21:14:33.596Z,36.84
2023-01-30T21:17:01.898Z,36.98
2023-01-30T21:19:30.069Z,37.33
2023-01-30T21:21:58.342Z,37.48
2023-01-30T21:24:27.466Z,37.29
2023-01-30T21:26:56.636Z,37.56
2023-01-30T21:29:27.646Z,37.09
2023-01-30T21:31:56.129Z,36.68
2023-01-30T21:34:24.342Z,37.09
2023-01-30T21:37:06.371Z,36.92
2023-01-30T21:39:51.659Z,36.94
2023-01-30T21:42:37.013Z,36.51
2023-01-30T21:45:08.209Z,36.93
2023-01-30T21:47:37.015Z,36.77
2023-01-30T21:50:05.794Z,36.57
2023-01-30T21:52:34.207Z,36.99
2023-01-30T21:55:02.435Z,36.59
2023-01-30T21:57:30.731Z,36.89
2023-01-30T21:59:58.875Z,36.57
2023-01-30T22:02:28.638Z,37.14
2023-01-30T22:04:57.000Z,37.24
2023-01-30T22:07:25.209Z,36.91
2023-01-30T22:09:53.990Z,37.00
2023-01-30T22:12:22.432Z,37.35
2023-01-30T22:14:50.804Z,37.19
2023-01-30T22:17:19.070Z,37.07
2023-01-30T22:19:48.734Z,37.32
2023-01-30T22:22:16.928Z,37.27
2023-01-30T22:24:45.126Z,37.18
2023-01-30T22:27:13.310Z,37.33
2023-01-30T22:29:41.519Z,36.95
2023-01-30T22:32:09.720Z,37.04
2023-01-30T22:34:38.181Z,36.77
2023-01-30T22:37:08.159Z,36.56
2023-01-30T22:39:37.160Z,36.87
2023-01-30T22:42:05.827Z,37.29
2023-01-30T22:44:34.100Z,36.56
2023-01-30T22:47:02.385Z,37.14
2023-01-30T22:49:30.734Z,36.51
2023-01-30T22:51:58.883Z,36.96
2023-01-30T22:54:28.874Z,36.42
2023-01-30T22:56:57.134Z,36.52
2023-01-30T22:59:25.331Z,36.68
2023-01-30T23:01:53.626Z,36.97
2023-01-30T23:04:22.607Z,36.45
2023-01-30T23:06:51.485Z,36.68
2023-01-30T23:09:20.508Z,36.68
2023-01-30T23:12:06.058Z,37.19
2023-01-30T23:14:34.620Z,36.95
2023-01-30T23:17:23.209Z,37.19
2023-01-30T23:19:50.540Z,36.87
2023-01-30T23:22:18.734Z,37.03
2023-01-30T23:24:48.728Z,36.69
2023-01-30T23:27:18.555Z,36.65
2023-01-30T23:29:49.365Z,36.70
2023-01-30T23:32:20.037Z,36.64
2023-01-30T23:34:48.405Z,37.07
2023-01-30T23:37:16.835Z,36.68
2023-01-30T23:39:45.128Z,36.40
2023-01-30T23:42:13.426Z,36.22
2023-01-30T23:44:43.174Z,36.25
2023-01-30T23:47:11.444Z,36.19
2023-01-30T23:49:39.927Z,36.46
2023-01-30T23:52:10.278Z,36.50
2023-01-30T23:54:38.724Z,36.37
2023-01-30T23:57:07.068Z,36.25
2023-01-30T23:59:35.276Z,36.31
